LKMT/OSR METAR and TAF weather

Enter ICAO airport designator
Station Type Date Time Source
LKMT METAR 2019/10/21 02:00 UTC NOAA

LKMT 210200Z 21002KT CAVOK 11/10 Q1015 NOSIG


Station Type Date Time Source
LKMT Decoded METAR 2019/10/21 02:00 UTC NOAA

Ostrava / Mosnov, Czech Republic (LKMT) 49-41N 018-07E 256M
Oct 20, 2019 - 10:00 PM EDT / 2019.10.21 0200 UTC
Wind: from the SSW (210 degrees) at 2 MPH (2 KT):0
Visibility: greater than 7 mile(s):0
Temperature: 51 F (11 C)
Dew Point: 50 F (10 C)
Relative Humidity: 93%
Pressure (altimeter): 29.97 in. Hg (1015 hPa)
ob: LKMT 210200Z 21002KT CAVOK 11/10 Q1015 NOSIG
cycle: 2

Station Type Date Time Source
LKMT TAF 2019/10/20 18:01 UTC NOAA

TAF LKMT 201700Z 2018/2200 23008KT CAVOK
TEMPO 2104/2107 7000 MIFG NSC
BECMG 2118/2120 VRB02KT

Example: see airport list